createdAt,value
2022-12-11T00:02:11.736Z,100005.59
2022-12-11T00:04:41.348Z,100001.44
2022-12-11T00:07:10.933Z,99998.84
2022-12-11T00:09:40.819Z,99989.38
2022-12-11T00:12:10.737Z,99991.94
2022-12-11T00:14:40.275Z,99987.00
2022-12-11T00:17:12.857Z,99994.28
2022-12-11T00:19:42.552Z,99988.56
2022-12-11T00:22:12.256Z,99989.75
2022-12-11T00:24:41.842Z,99991.94
2022-12-11T00:27:11.732Z,99990.28
2022-12-11T00:29:41.356Z,99994.81
2022-12-11T00:32:13.604Z,99986.03
2022-12-11T00:34:43.257Z,99994.00
2022-12-11T00:37:13.109Z,99994.28
2022-12-11T00:39:42.729Z,99998.16
2022-12-11T00:42:12.325Z,100000.09
2022-12-11T00:44:41.913Z,99991.69
2022-12-11T00:47:14.164Z,99995.66
2022-12-11T00:49:49.416Z,99992.91
2022-12-11T00:52:20.125Z,99992.97
2022-12-11T00:54:49.714Z,99991.84
2022-12-11T00:57:19.320Z,99992.97
2022-12-11T00:59:48.952Z,99985.59
2022-12-11T01:02:21.117Z,99989.19
2022-12-11T01:04:50.747Z,99989.72
2022-12-11T01:07:20.312Z,99985.28
2022-12-11T01:10:02.403Z,99993.94
2022-12-11T01:12:32.028Z,99992.13
2022-12-11T01:15:01.652Z,99995.09
2022-12-11T01:17:33.865Z,99993.41
2022-12-11T01:20:04.304Z,100001.41
2022-12-11T01:22:33.967Z,100000.44
2022-12-11T01:25:03.777Z,99994.94
2022-12-11T01:27:33.362Z,99998.41
2022-12-11T01:30:03.184Z,100000.09
2022-12-11T01:32:35.477Z,100002.25
2022-12-11T01:35:05.986Z,99998.28
2022-12-11T01:37:35.657Z,99998.00
2022-12-11T01:40:05.932Z,99987.31
2022-12-11T01:42:35.597Z,99990.06
2022-12-11T01:45:33.343Z,99989.38
2022-12-11T01:48:08.949Z,99991.75
2022-12-11T01:50:41.473Z,99996.28
2022-12-11T01:53:12.837Z,100000.97
2022-12-11T01:55:42.442Z,100005.63
2022-12-11T01:58:12.052Z,100000.56
2022-12-11T02:00:41.623Z,100010.00
2022-12-11T02:03:13.800Z,99999.19
2022-12-11T02:05:43.384Z,100002.31
2022-12-11T02:08:13.003Z,100005.16
2022-12-11T02:10:50.436Z,100004.84
2022-12-11T02:13:22.189Z,100008.19
2022-12-11T02:15:53.345Z,100020.81
2022-12-11T02:18:28.521Z,100021.25
2022-12-11T02:21:01.354Z,100014.63
2022-12-11T02:23:42.062Z,100014.75
2022-12-11T02:26:25.191Z,100018.44
2022-12-11T02:28:58.375Z,100020.22
2022-12-11T02:31:30.753Z,100023.38
2022-12-11T02:34:02.420Z,100017.44
2022-12-11T02:36:33.142Z,100018.38
2022-12-11T02:39:02.758Z,100011.25
2022-12-11T02:41:32.489Z,100015.50
2022-12-11T02:44:05.257Z,100011.78
2022-12-11T02:46:35.062Z,100010.81
2022-12-11T02:49:06.525Z,100007.94
2022-12-11T02:51:37.463Z,100006.13
2022-12-11T02:54:07.183Z,100000.25
2022-12-11T02:56:39.466Z,99992.44
2022-12-11T02:59:13.042Z,99984.63
2022-12-11T03:01:42.689Z,99985.28
2022-12-11T03:04:12.347Z,99991.19
2022-12-11T03:06:44.494Z,99994.91
2022-12-11T03:09:14.123Z,99992.97
2022-12-11T03:11:43.757Z,99993.47
2022-12-11T03:14:16.748Z,100001.16
2022-12-11T03:16:50.480Z,100006.50
2022-12-11T03:19:23.174Z,99998.31
2022-12-11T03:21:55.244Z,99996.41
2022-12-11T03:24:26.699Z,99999.38
2022-12-11T03:27:00.956Z,100003.75
2022-12-11T03:29:35.412Z,99989.75
2022-12-11T03:32:07.866Z,99999.22
2022-12-11T03:34:40.850Z,99999.38
2022-12-11T03:37:10.531Z,99999.66
2022-12-11T03:39:41.289Z,99999.81
2022-12-11T03:42:11.514Z,100001.28
2022-12-11T03:44:43.688Z,100003.63
2022-12-11T03:47:13.318Z,99997.06
2022-12-11T03:49:44.709Z,99994.75
2022-12-11T03:52:15.217Z,99997.34
2022-12-11T03:54:45.464Z,99996.78
2022-12-11T03:57:16.201Z,99992.50
2022-12-11T03:59:48.428Z,99985.81
2022-12-11T04:02:18.275Z,99990.81
2022-12-11T04:04:47.853Z,99986.28
2022-12-11T04:07:17.482Z,99996.09
2022-12-11T04:09:47.047Z,99998.69
2022-12-11T04:12:16.633Z,99997.56
2022-12-11T04:15:01.379Z,99987.75
2022-12-11T04:17:46.365Z,99992.22
2022-12-11T04:20:28.435Z,99987.75
2022-12-11T04:23:10.534Z,99985.97
2022-12-11T04:25:40.206Z,99990.66
2022-12-11T04:28:09.853Z,99985.44
2022-12-11T04:30:42.031Z,99987.97
2022-12-11T04:33:11.638Z,99995.41
2022-12-11T04:35:41.248Z,99993.41
2022-12-11T04:38:10.856Z,99993.53
2022-12-11T04:40:40.520Z,99990.28
2022-12-11T04:43:10.197Z,99995.69
2022-12-11T04:45:42.415Z,99996.50
2022-12-11T04:48:12.043Z,100002.97
2022-12-11T04:50:41.699Z,99999.00
2022-12-11T04:53:11.305Z,100005.06
2022-12-11T04:55:42.417Z,99996.59
2022-12-11T04:58:12.087Z,99999.00
2022-12-11T05:00:44.309Z,99996.41
2022-12-11T05:03:13.998Z,99991.06
2022-12-11T05:05:43.598Z,99994.38
2022-12-11T05:08:13.272Z,100004.47
2022-12-11T05:10:48.549Z,100004.84
2022-12-11T05:13:19.624Z,100000.59
2022-12-11T05:15:51.845Z,99987.75
2022-12-11T05:18:21.502Z,99989.81
2022-12-11T05:20:57.963Z,99982.97
2022-12-11T05:23:27.600Z,99979.41
2022-12-11T05:25:57.320Z,99980.53
2022-12-11T05:28:27.509Z,99982.38
2022-12-11T05:31:01.382Z,99981.66
2022-12-11T05:33:31.224Z,99975.47
2022-12-11T05:36:00.917Z,99970.97
2022-12-11T05:38:30.508Z,99963.28
2022-12-11T05:41:00.626Z,99958.88
2022-12-11T05:43:30.688Z,99949.53
2022-12-11T05:46:08.077Z,99940.75
2022-12-11T05:48:37.677Z,99953.91
2022-12-11T05:51:08.396Z,99949.59
2022-12-11T05:53:38.419Z,99946.19
2022-12-11T05:56:09.333Z,99962.31
2022-12-11T05:58:39.017Z,99962.00
2022-12-11T06:01:12.797Z,99963.44
2022-12-11T06:03:42.381Z,99963.72
2022-12-11T06:06:12.091Z,99951.91
2022-12-11T06:08:41.719Z,99956.66
2022-12-11T06:11:11.470Z,99956.38
2022-12-11T06:13:41.049Z,99957.25
2022-12-11T06:16:13.458Z,99947.06
2022-12-11T06:18:44.004Z,99961.50
2022-12-11T06:21:17.197Z,99957.41
2022-12-11T06:23:47.079Z,99948.84
2022-12-11T06:26:17.201Z,99957.03
2022-12-11T06:28:46.848Z,99951.97
2022-12-11T06:31:19.215Z,99957.63
2022-12-11T06:33:48.957Z,99949.38
2022-12-11T06:36:19.557Z,99944.69
2022-12-11T06:38:49.415Z,99954.50
2022-12-11T06:41:18.993Z,99951.59
2022-12-11T06:43:48.591Z,99942.16
2022-12-11T06:46:21.603Z,99943.13
2022-12-11T06:48:51.468Z,99952.44
2022-12-11T06:51:22.369Z,99944.09
2022-12-11T06:53:53.809Z,99954.81
2022-12-11T06:56:23.500Z,99956.06
2022-12-11T06:58:53.204Z,99964.84
2022-12-11T07:01:26.390Z,99964.03
2022-12-11T07:03:56.207Z,99960.59
2022-12-11T07:06:25.920Z,99951.44
2022-12-11T07:08:55.739Z,99946.84
2022-12-11T07:11:25.542Z,99950.13
2022-12-11T07:13:55.101Z,99944.91
2022-12-11T07:16:27.319Z,99952.16
2022-12-11T07:18:56.925Z,99947.44
2022-12-11T07:21:26.525Z,99946.97
2022-12-11T07:23:56.105Z,99949.06
2022-12-11T07:26:25.777Z,99950.47
2022-12-11T07:28:56.091Z,99950.25
2022-12-11T07:31:29.080Z,99952.41
2022-12-11T07:33:58.797Z,99952.31
2022-12-11T07:36:28.370Z,99961.63
2022-12-11T07:38:58.234Z,99961.47
2022-12-11T07:41:28.352Z,99961.63
2022-12-11T07:43:58.048Z,99960.69
2022-12-11T07:46:31.333Z,99958.00
2022-12-11T07:49:00.924Z,99957.78
2022-12-11T07:51:31.228Z,99961.25
2022-12-11T07:54:02.042Z,99961.50
2022-12-11T07:56:31.956Z,99967.22
2022-12-11T07:59:02.021Z,99975.88
2022-12-11T08:01:35.750Z,99969.81
2022-12-11T08:04:05.501Z,99965.41
2022-12-11T08:06:36.060Z,99959.34
2022-12-11T08:09:06.926Z,99952.09
2022-12-11T08:11:36.580Z,99960.38
2022-12-11T08:14:06.742Z,99960.78
2022-12-11T08:16:43.069Z,99961.38
2022-12-11T08:19:13.424Z,99961.59
2022-12-11T08:21:43.543Z,99968.44
2022-12-11T08:24:14.702Z,99966.66
2022-12-11T08:26:44.349Z,99968.41
2022-12-11T08:29:13.948Z,99968.75
2022-12-11T08:31:46.192Z,99969.88
2022-12-11T08:34:15.788Z,99968.41
2022-12-11T08:36:45.464Z,99967.72
2022-12-11T08:39:15.080Z,99968.97
2022-12-11T08:41:44.708Z,99975.00
2022-12-11T08:44:16.932Z,99974.63
2022-12-11T08:46:49.397Z,99972.03
2022-12-11T08:49:18.952Z,99973.66
2022-12-11T08:51:48.566Z,99969.91
2022-12-11T08:54:18.134Z,99969.19
2022-12-11T08:56:47.814Z,99963.47
2022-12-11T08:59:17.379Z,99965.06
2022-12-11T09:01:49.717Z,99962.88
2022-12-11T09:04:19.506Z,99965.06
2022-12-11T09:06:49.350Z,99961.88
2022-12-11T09:09:18.990Z,99960.72
2022-12-11T09:11:49.739Z,99958.94
2022-12-11T09:14:19.291Z,99967.84
2022-12-11T09:16:51.460Z,99965.75
2022-12-11T09:19:20.998Z,99963.69
2022-12-11T09:21:52.053Z,99966.88
2022-12-11T09:24:21.355Z,99963.34
2022-12-11T09:26:50.962Z,99966.09
2022-12-11T09:29:20.522Z,99968.91
2022-12-11T09:31:52.732Z,99972.72
2022-12-11T09:34:28.696Z,99970.09
2022-12-11T09:36:59.574Z,99970.19
2022-12-11T09:39:29.180Z,99971.97
2022-12-11T09:42:00.903Z,99965.50
2022-12-11T09:44:35.681Z,99959.44
2022-12-11T09:47:12.409Z,99960.56
2022-12-11T09:49:43.039Z,99960.84
2022-12-11T09:52:15.576Z,99964.09
2022-12-11T09:54:50.858Z,99964.31
2022-12-11T09:57:35.194Z,99957.97
2022-12-11T10:00:22.111Z,99951.47
2022-12-11T10:03:28.531Z,99952.00
2022-12-11T10:06:04.433Z,99941.78
2022-12-11T10:08:36.263Z,99944.28
2022-12-11T10:11:08.583Z,99939.94
2022-12-11T10:13:40.317Z,99937.44
2022-12-11T10:16:14.914Z,99935.47
2022-12-11T10:18:47.276Z,99936.91
2022-12-11T10:21:16.798Z,99938.81
2022-12-11T10:23:47.141Z,99940.00
2022-12-11T10:26:19.245Z,99937.00
2022-12-11T10:28:48.858Z,99937.25
2022-12-11T10:31:20.157Z,99936.25
2022-12-11T10:33:58.716Z,99932.72
2022-12-11T10:36:30.763Z,99929.31
2022-12-11T10:39:00.413Z,99923.91
2022-12-11T10:41:36.869Z,99926.84
2022-12-11T10:44:19.147Z,99927.97
2022-12-11T10:46:48.776Z,99922.00
2022-12-11T10:49:28.026Z,99924.19
2022-12-11T10:51:57.532Z,99919.69
2022-12-11T10:54:34.861Z,99909.94
2022-12-11T10:57:04.884Z,99907.09
2022-12-11T10:59:37.477Z,99909.75
2022-12-11T11:02:07.364Z,99905.50
2022-12-11T11:04:40.761Z,99900.47
2022-12-11T11:07:15.408Z,99913.66
2022-12-11T11:09:44.911Z,99905.44
2022-12-11T11:12:21.952Z,99903.44
2022-12-11T11:15:01.790Z,99898.28
2022-12-11T11:17:34.959Z,99898.84
2022-12-11T11:20:16.310Z,99895.63
2022-12-11T11:22:47.599Z,99890.94
2022-12-11T11:25:22.277Z,99884.59
2022-12-11T11:27:53.313Z,99872.75
2022-12-11T11:30:23.834Z,99880.22
2022-12-11T11:32:54.422Z,99882.31
2022-12-11T11:35:28.221Z,99882.34
2022-12-11T11:38:01.434Z,99877.41
2022-12-11T11:40:32.571Z,99873.09
2022-12-11T11:43:07.725Z,99872.34
2022-12-11T11:45:40.666Z,99864.81
2022-12-11T11:48:15.980Z,99872.47
2022-12-11T11:50:50.608Z,99873.41
2022-12-11T11:53:22.083Z,99868.97
2022-12-11T11:55:55.752Z,99870.00
2022-12-11T11:58:27.718Z,99868.44
2022-12-11T12:00:57.555Z,99869.91
2022-12-11T12:03:27.455Z,99870.66
2022-12-11T12:06:03.842Z,99871.88
2022-12-11T12:08:41.482Z,99866.47
2022-12-11T12:11:14.496Z,99862.44
2022-12-11T12:13:50.130Z,99862.41
2022-12-11T12:16:51.657Z,99861.03
2022-12-11T12:19:21.101Z,99860.47
2022-12-11T12:21:54.886Z,99861.84
2022-12-11T12:24:34.743Z,99867.09
2022-12-11T12:27:51.059Z,99856.31
2022-12-11T12:30:16.150Z,99857.81
2022-12-11T12:32:53.537Z,99856.50
2022-12-11T12:35:33.298Z,99851.69
2022-12-11T12:38:09.493Z,99850.94
2022-12-11T12:40:41.503Z,99847.53
2022-12-11T12:43:33.632Z,99848.81
2022-12-11T12:46:07.591Z,99847.84
2022-12-11T12:48:37.114Z,99850.91
2022-12-11T12:51:06.802Z,99853.81
2022-12-11T12:53:38.960Z,99857.69
2022-12-11T12:56:09.246Z,99859.09
2022-12-11T12:58:44.862Z,99851.19
2022-12-11T13:01:19.322Z,99859.59
2022-12-11T13:03:53.861Z,99856.56
2022-12-11T13:06:34.536Z,99853.16
2022-12-11T13:09:18.532Z,99859.28
2022-12-11T13:11:50.157Z,99862.66
2022-12-11T13:14:31.981Z,99858.25
2022-12-11T13:17:09.293Z,99861.19
2022-12-11T13:19:42.509Z,99864.97
2022-12-11T13:22:24.388Z,99858.97
2022-12-11T13:25:04.842Z,99862.75
2022-12-11T13:27:40.045Z,99854.78
2022-12-11T13:30:24.467Z,99843.59
2022-12-11T13:33:01.548Z,99847.56
2022-12-11T13:35:31.266Z,99842.69
2022-12-11T13:38:04.273Z,99855.88
2022-12-11T13:40:41.212Z,99845.72
2022-12-11T13:43:17.848Z,99854.78
2022-12-11T13:45:49.492Z,99859.56
2022-12-11T13:48:22.590Z,99861.13
2022-12-11T13:50:52.565Z,99863.09
2022-12-11T13:53:22.221Z,99856.28
2022-12-11T13:56:01.776Z,99862.91
2022-12-11T13:58:31.792Z,99853.34
2022-12-11T14:01:11.155Z,99850.28
2022-12-11T14:03:41.791Z,99850.00
2022-12-11T14:06:18.224Z,99848.69
2022-12-11T14:08:48.841Z,99843.66
2022-12-11T14:11:24.339Z,99845.94
2022-12-11T14:13:54.139Z,99846.75
2022-12-11T14:16:24.788Z,99846.72
2022-12-11T14:18:54.429Z,99864.84
2022-12-11T14:21:25.019Z,99861.09
2022-12-11T14:23:54.864Z,99859.47
2022-12-11T14:26:27.821Z,99877.22
2022-12-11T14:28:57.652Z,99868.06
2022-12-11T14:31:29.970Z,99859.44
2022-12-11T14:34:01.728Z,99869.09
2022-12-11T14:36:31.226Z,99871.53
2022-12-11T14:39:03.696Z,99867.47
2022-12-11T14:41:38.129Z,99870.25
2022-12-11T14:44:08.072Z,99876.44
2022-12-11T14:46:39.456Z,99869.25
2022-12-11T14:49:10.331Z,99870.41
2022-12-11T14:51:41.821Z,99874.34
2022-12-11T14:54:20.081Z,99876.44
2022-12-11T14:56:52.434Z,99881.34
2022-12-11T14:59:28.469Z,99891.31
2022-12-11T15:02:02.119Z,99891.94
2022-12-11T15:04:33.025Z,99892.34
2022-12-11T15:07:02.604Z,99895.91
2022-12-11T15:09:32.931Z,99899.59
2022-12-11T15:12:19.523Z,99896.91
2022-12-11T15:14:51.524Z,99902.38
2022-12-11T15:17:21.302Z,99897.94
2022-12-11T15:19:51.685Z,99905.28
2022-12-11T15:22:21.263Z,99892.50
2022-12-11T15:24:53.028Z,99901.66
2022-12-11T15:27:37.025Z,99900.34
2022-12-11T15:30:18.490Z,99898.84
2022-12-11T15:32:48.126Z,99905.53
2022-12-11T15:35:25.155Z,99903.13
2022-12-11T15:37:55.005Z,99905.53
2022-12-11T15:40:24.644Z,99904.91
2022-12-11T15:42:57.479Z,99913.16
2022-12-11T15:45:28.518Z,99908.56
2022-12-11T15:47:59.471Z,99900.63
2022-12-11T15:50:31.852Z,99896.28
2022-12-11T15:53:01.330Z,99901.66
2022-12-11T15:55:34.887Z,99897.59
2022-12-11T15:58:08.853Z,99903.81
2022-12-11T16:00:38.373Z,99900.22
2022-12-11T16:03:07.858Z,99899.72
2022-12-11T16:05:37.326Z,99900.34
2022-12-11T16:08:07.753Z,99901.81
2022-12-11T16:10:37.635Z,99904.41
2022-12-11T16:13:09.710Z,99902.97
2022-12-11T16:15:39.910Z,99905.22
2022-12-11T16:18:11.180Z,99905.22
2022-12-11T16:20:40.960Z,99908.84
2022-12-11T16:23:10.696Z,99904.59
2022-12-11T16:25:40.886Z,99896.44
2022-12-11T16:28:13.490Z,99897.56
2022-12-11T16:30:43.558Z,99908.00
2022-12-11T16:33:13.746Z,99904.75
2022-12-11T16:35:43.375Z,99900.19
2022-12-11T16:38:13.589Z,99901.16
2022-12-11T16:40:43.300Z,99902.97
2022-12-11T16:43:15.339Z,99896.78
2022-12-11T16:45:44.796Z,99893.19
2022-12-11T16:48:14.226Z,99896.81
2022-12-11T16:50:43.680Z,99904.97
2022-12-11T16:53:14.634Z,99899.44
2022-12-11T16:55:44.310Z,99889.47
2022-12-11T16:58:20.086Z,99890.47
2022-12-11T17:00:49.614Z,99905.78
2022-12-11T17:03:19.149Z,99898.28
2022-12-11T17:05:48.628Z,99895.69
2022-12-11T17:08:18.127Z,99889.66
2022-12-11T17:10:47.633Z,99886.38
2022-12-11T17:13:19.662Z,99890.94
2022-12-11T17:15:49.135Z,99885.09
2022-12-11T17:18:18.599Z,99883.94
2022-12-11T17:20:48.067Z,99888.97
2022-12-11T17:23:17.544Z,99887.22
2022-12-11T17:25:47.447Z,99889.66
2022-12-11T17:28:19.495Z,99888.34
2022-12-11T17:30:50.160Z,99895.38
2022-12-11T17:33:19.705Z,99891.13
2022-12-11T17:35:49.250Z,99874.94
2022-12-11T17:38:18.709Z,99883.59
2022-12-11T17:40:48.588Z,99881.31
2022-12-11T17:43:20.729Z,99885.34
2022-12-11T17:45:52.460Z,99889.28
2022-12-11T17:48:22.500Z,99891.91
2022-12-11T17:50:52.830Z,99888.78
2022-12-11T17:53:22.986Z,99878.06
2022-12-11T17:55:52.826Z,99891.09
2022-12-11T17:58:25.344Z,99881.16
2022-12-11T18:00:55.757Z,99894.06
2022-12-11T18:03:25.552Z,99890.47
2022-12-11T18:05:56.369Z,99882.59
2022-12-11T18:08:30.002Z,99877.53
2022-12-11T18:10:59.751Z,99884.38
2022-12-11T18:13:31.796Z,99880.13
2022-12-11T18:16:04.782Z,99884.38
2022-12-11T18:18:34.341Z,99886.50
2022-12-11T18:21:04.005Z,99881.47
2022-12-11T18:23:33.518Z,99888.16
2022-12-11T18:26:03.005Z,99881.16
2022-12-11T18:28:35.090Z,99879.84
2022-12-11T18:31:04.717Z,99884.22
2022-12-11T18:33:34.369Z,99873.47
2022-12-11T18:36:04.099Z,99881.00
2022-12-11T18:38:33.623Z,99876.72
2022-12-11T18:41:04.943Z,99878.06
2022-12-11T18:43:37.086Z,99888.47
2022-12-11T18:46:08.423Z,99888.31
2022-12-11T18:48:38.023Z,99887.31
2022-12-11T18:51:09.384Z,99884.88
2022-12-11T18:53:39.227Z,99882.75
2022-12-11T18:56:09.810Z,99884.56
2022-12-11T18:58:41.855Z,99882.78
2022-12-11T19:01:11.906Z,99881.31
2022-12-11T19:03:41.446Z,99885.34
2022-12-11T19:06:11.970Z,99888.75
2022-12-11T19:08:41.473Z,99888.31
2022-12-11T19:11:11.057Z,99886.81
2022-12-11T19:13:43.921Z,99886.16
2022-12-11T19:16:18.447Z,99880.63
2022-12-11T19:18:48.048Z,99879.41
2022-12-11T19:21:18.122Z,99885.44
2022-12-11T19:23:47.861Z,99883.00
2022-12-11T19:26:18.468Z,99882.19
2022-12-11T19:28:51.239Z,99880.88
2022-12-11T19:31:21.627Z,99875.22
2022-12-11T19:33:51.184Z,99884.88
2022-12-11T19:36:21.678Z,99879.84
2022-12-11T19:38:51.223Z,99877.56
2022-12-11T19:41:21.954Z,99883.56
2022-12-11T19:43:54.394Z,99878.69
2022-12-11T19:46:24.042Z,99869.22
2022-12-11T19:48:54.152Z,99876.22
2022-12-11T19:51:24.881Z,99879.00
2022-12-11T19:53:54.367Z,99874.28
2022-12-11T19:56:24.019Z,99876.25
2022-12-11T19:58:56.059Z,99884.09
2022-12-11T20:01:28.849Z,99871.03
2022-12-11T20:03:59.595Z,99875.78
2022-12-11T20:06:29.996Z,99867.47
2022-12-11T20:08:59.611Z,99871.19
2022-12-11T20:11:29.118Z,99870.06
2022-12-11T20:14:01.283Z,99876.13
2022-12-11T20:17:01.680Z,99874.94
2022-12-11T20:19:20.288Z,99872.88
2022-12-11T20:21:49.752Z,99877.41
2022-12-11T20:24:19.226Z,99874.47
2022-12-11T20:26:49.203Z,99881.63
2022-12-11T20:29:21.262Z,99881.63
2022-12-11T20:31:52.640Z,99883.44
2022-12-11T20:34:23.079Z,99884.41
2022-12-11T20:36:54.607Z,99886.03
2022-12-11T20:39:24.117Z,99891.25
2022-12-11T20:41:53.579Z,99880.81
2022-12-11T20:44:25.923Z,99887.66
2022-12-11T20:46:55.395Z,99887.50
2022-12-11T20:49:24.892Z,99882.44
2022-12-11T20:51:54.387Z,99887.81
2022-12-11T20:54:23.873Z,99892.25
2022-12-11T20:56:53.347Z,99888.50
2022-12-11T20:59:26.107Z,99891.59
2022-12-11T21:01:55.963Z,99873.50
2022-12-11T21:04:25.696Z,99879.88
2022-12-11T21:06:55.438Z,99881.47
2022-12-11T21:09:26.535Z,99881.50
2022-12-11T21:11:55.820Z,99886.59
2022-12-11T21:14:27.860Z,99888.91
2022-12-11T21:16:57.380Z,99886.50
2022-12-11T21:19:26.900Z,99885.53
2022-12-11T21:21:56.387Z,99887.50
2022-12-11T21:24:27.382Z,99886.56
2022-12-11T21:26:57.685Z,99882.50
2022-12-11T21:29:30.044Z,99882.81
2022-12-11T21:31:59.635Z,99883.78
2022-12-11T21:34:29.717Z,99884.94
2022-12-11T21:36:59.322Z,99886.91
2022-12-11T21:39:29.316Z,99889.66
2022-12-11T21:41:58.803Z,99889.16
2022-12-11T21:47:20.306Z,99883.94
2022-12-11T21:49:49.801Z,99895.69
2022-12-11T21:52:19.666Z,99886.22
2022-12-11T21:54:49.310Z,99879.03
2022-12-11T21:57:22.822Z,99892.09
2022-12-11T21:59:58.068Z,99890.00
2022-12-11T22:02:27.643Z,99887.03
2022-12-11T22:04:57.145Z,99887.72
2022-12-11T22:07:27.639Z,99885.59
2022-12-11T22:09:58.003Z,99885.75
2022-12-11T22:12:29.151Z,99892.75
2022-12-11T22:15:01.195Z,99893.25
2022-12-11T22:17:31.656Z,99890.00
2022-12-11T22:20:01.339Z,99886.56
2022-12-11T22:22:30.791Z,99887.22
2022-12-11T22:25:00.301Z,99899.28
2022-12-11T22:27:29.768Z,99896.50
2022-12-11T22:30:01.788Z,99896.50
2022-12-11T22:32:31.268Z,99902.72
2022-12-11T22:35:00.875Z,99901.88
2022-12-11T22:37:30.347Z,99905.47
2022-12-11T22:39:59.782Z,99905.63
2022-12-11T22:42:29.271Z,99909.88
2022-12-11T22:45:01.300Z,99917.06
2022-12-11T22:47:30.798Z,99914.44
2022-12-11T22:50:00.224Z,99907.75
2022-12-11T22:52:29.894Z,99908.91
2022-12-11T22:54:59.361Z,99897.19
2022-12-11T22:57:28.855Z,99909.25
2022-12-11T23:00:00.911Z,99910.88
2022-12-11T23:02:30.380Z,99901.91
2022-12-11T23:04:59.843Z,99899.66
2022-12-11T23:07:29.757Z,99896.19
2022-12-11T23:09:59.262Z,99909.41
2022-12-11T23:12:28.737Z,99906.16
2022-12-11T23:15:00.761Z,99899.63
2022-12-11T23:17:30.279Z,99908.47
2022-12-11T23:20:00.473Z,99901.13
2022-12-11T23:22:29.973Z,99910.72
2022-12-11T23:24:59.432Z,99912.69
2022-12-11T23:27:28.917Z,99905.47
2022-12-11T23:30:00.932Z,99906.78
2022-12-11T23:32:30.370Z,99909.25
2022-12-11T23:34:59.832Z,99897.97
2022-12-11T23:37:29.315Z,99913.66
2022-12-11T23:39:59.004Z,99905.81
2022-12-11T23:42:28.521Z,99903.53
2022-12-11T23:44:58.067Z,99918.38
2022-12-11T23:47:30.134Z,99915.31
2022-12-11T23:49:59.587Z,99914.00
2022-12-11T23:52:29.193Z,99918.41
2022-12-11T23:54:58.691Z,99917.09
2022-12-11T23:57:28.160Z,99922.63
2022-12-11T23:59:57.603Z,99918.22
